GW1822 Weather Reports


time (UTC)temp
C
wind
direction
speed
KPH
gust
KPH
rain 1hr
cm
rain 24hr
cm
rain mn
cm
humidity
%
barometer
mb
20260503071725 9 5 3.2 4.8 0.00 0.00 0.00 57 1008.2
20260503071225 9 357 1.6 3.2 0.00 0.00 0.00 57 1008.3
20260503070724 9 10 3.2 4.8 0.00 0.00 0.00 58 1008.4
20260503070224 9 172 3.2 3.2 0.00 0.00 0.00 57 1008.4
20260503060226 9 15 1.6 3.2 0.00 0.00 0.00 56 1009.0
20260503054723 10 20 3.2 3.2 0.00 0.00 0.00 55 1009.3
20260503054225 10 1 3.2 4.8 0.00 0.00 0.00 54 1009.3
20260503053725 10 4 3.2 3.2 0.00 0.00 0.00 54 1009.4
20260503053226 10 346 1.6 3.2 0.00 0.00 0.00 54 1009.5
20260503052723 9 239 1.6 3.2 0.00 0.00 0.00 55 1009.5
20260503052227 8 266 1.6 3.2 0.00 0.00 0.00 56 1009.6
20260503051724 8 12 3.2 4.8 0.00 0.00 0.00 58 1009.6
20260503051225 8 9 1.6 3.2 0.00 0.00 0.00 59 1009.6
20260503050728 8 5 0.0 1.6 0.00 0.00 0.00 59 1009.7
20260503050228 8 11 1.6 3.2 0.00 0.00 0.00 59 1009.7
20260503045724 8 14 1.6 3.2 0.00 0.00 0.00 59 1009.7
20260503045224 8 12 3.2 6.4 0.00 0.00 0.00 57 1009.7
20260503044723 8 10 1.6 4.8 0.00 0.00 0.00 58 1009.7
20260503044224 8 18 0.0 1.6 0.00 0.00 0.00 60 1009.8
20260503043724 7 11 0.0 1.6 0.00 0.00 0.00 61 1009.8
20260503043223 8 320 0.0 1.6 0.00 0.00 0.00 62 1009.8
20260503042723 7 36 0.0 3.2 0.00 0.00 0.00 62 1009.9
20260503042223 7 298 0.0 1.6 0.00 0.00 0.00 63 1010.0
20260503041724 8 297 1.6 3.2 0.00 0.00 0.00 63 1010.0
20260503041224 8 324 0.0 1.6 0.00 0.00 0.00 62 1010.0
20260503040723 8 11 0.0 1.6 0.00 0.00 0.00 64 1010.0
20260503040223 8 296 0.0 1.6 0.00 0.00 0.00 66 1010.1
20260503035725 8 26 0.0 3.2 0.00 0.00 0.00 61 1010.1
20260503035226 8 21 0.0 3.2 0.00 0.00 0.00 61 1010.2
20260503034723 8 23 0.0 3.2 0.00 0.00 0.00 61 1010.3
20260503034224 8 43 0.0 1.6 0.00 0.00 0.00 62 1010.4
20260503033723 8 37 3.2 3.2 0.00 0.00 0.00 58 1010.4
20260503033223 8 34 1.6 3.2 0.00 0.00 0.00 59 1010.4
20260503032723 8 28 1.6 3.2 0.00 0.00 0.00 57 1010.5
20260503032224 8 25 1.6 3.2 0.00 0.00 0.00 60 1010.6
20260503031724 8 2 3.2 3.2 0.00 0.00 0.00 56 1010.7
20260503031223 8 15 1.6 3.2 0.00 0.00 0.00 57 1010.7
20260503030724 8 20 3.2 3.2 0.00 0.00 0.00 56 1010.8
20260503030224 8 0 0.0 0.0 0.00 0.00 0.00 60 1010.8
20260503025724 8 25 3.2 4.8 0.00 0.00 0.00 58 1010.8
20260503025223 8 314 0.0 1.6 0.00 0.00 0.00 60 1010.9
20260503024725 8 279 1.6 3.2 0.00 0.00 0.00 61 1010.9
20260503024226 8 297 0.0 1.6 0.00 0.00 0.00 57 1010.9
20260503023724 8 8 1.6 3.2 0.00 0.00 0.00 55 1010.9
20260503023223 8 285 1.6 3.2 0.00 0.00 0.00 56 1011.0
20260503022725 8 0 0.0 0.0 0.00 0.00 0.00 55 1011.0
20260503022224 9 11 0.0 1.6 0.00 0.00 0.00 52 1011.1
20260503021727 9 0 0.0 0.0 0.00 0.00 0.00 53 1011.1
20260503021229 10 16 1.6 3.2 0.00 0.00 0.00 53 1011.2
20260503020723 10 12 1.6 3.2 0.00 0.00 0.00 51 1011.2
20260503020226 10 13 3.2 3.2 0.00 0.00 0.00 49 1011.2
20260503015724 11 16 3.2 4.8 0.00 0.00 0.00 49 1011.2
20260503015224 11 269 0.0 1.6 0.00 0.00 0.00 46 1011.2
20260503014723 11 332 1.6 3.2 0.00 0.00 0.00 47 1011.2
20260503014223 11 330 1.6 3.2 0.00 0.00 0.00 46 1011.2
20260503013725 11 31 0.0 1.6 0.00 0.00 0.00 44 1011.2
20260503013224 11 252 0.0 1.6 0.00 0.00 0.00 44 1011.2
20260503012728 12 228 1.6 3.2 0.00 0.00 0.00 43 1011.2
20260503012224 12 23 0.0 1.6 0.00 0.00 0.00 43 1011.2
20260503011723 12 229 0.0 3.2 0.00 0.00 0.00 42 1011.2
20260503011225 12 207 1.6 3.2 0.00 0.00 0.00 41 1011.2
20260503010724 12 252 1.6 3.2 0.00 0.00 0.00 41 1011.2
20260503010225 12 255 1.6 4.8 0.00 0.00 0.00 40 1011.2
20260503005723 12 217 3.2 9.7 0.00 0.00 0.00 40 1011.3
20260503005223 12 260 3.2 6.4 0.00 0.00 0.00 39 1011.3
20260503004724 12 261 0.0 3.2 0.00 0.00 0.00 39 1011.3
20260503004225 12 272 0.0 1.6 0.00 0.00 0.00 39 1011.3
20260503003724 13 50 1.6 3.2 0.00 0.00 0.00 38 1011.3
20260503003226 13 327 1.6 3.2 0.00 0.00 0.00 39 1011.3
20260503002723 13 298 4.8 6.4 0.00 0.00 0.00 37 1011.3
20260503002223 13 274 3.2 6.4 0.00 0.00 0.00 37 1011.3
20260503001723 13 307 3.2 3.2 0.00 0.00 0.00 36 1011.4
20260503001223 13 205 3.2 8.0 0.00 0.00 0.00 35 1011.5
20260503000725 13 252 3.2 6.4 0.00 0.00 0.00 36 1011.5
20260503000227 13 203 4.8 9.7 0.00 0.00 0.00 37 1011.5
20260502235723 13 249 1.6 3.2 0.00 0.00 0.00 38 1011.5
20260502235224 13 281 3.2 8.0 0.00 0.00 0.00 36 1011.6
20260502234724 13 239 3.2 6.4 0.00 0.00 0.00 36 1011.6
20260502234223 13 203 6.4 11.3 0.00 0.00 0.00 37 1011.6
20260502233723 14 167 6.4 14.5 0.00 0.00 0.00 36 1011.5
20260502233224 14 202 6.4 11.3 0.00 0.00 0.00 34 1011.6
20260502232724 15 254 3.2 12.9 0.00 0.00 0.00 34 1011.6
20260502232223 14 187 8.0 12.9 0.00 0.00 0.00 34 1011.6
20260502231723 15 185 6.4 9.7 0.00 0.00 0.00 33 1011.6
20260502231224 15 190 6.4 11.3 0.00 0.00 0.00 34 1011.6
20260502230724 15 191 6.4 9.7 0.00 0.00 0.00 35 1011.6
20260502230232 15 173 4.8 9.7 0.00 0.00 0.00 34 1011.7
20260502225723 15 185 4.8 8.0 0.00 0.00 0.00 36 1011.8
20260502225223 15 296 3.2 6.4 0.00 0.00 0.00 35 1011.8
20260502224723 15 183 6.4 20.9 0.00 0.00 0.00 35 1012.0
20260502224224 15 163 8.0 14.5 0.00 0.00 0.00 34 1012.0
20260502223723 15 182 8.0 16.1 0.00 0.00 0.00 35 1012.0
20260502223223 15 155 9.7 19.3 0.00 0.00 0.00 35 1012.0
20260502222723 14 233 4.8 8.0 0.00 0.00 0.00 36 1012.0
20260502222223 15 344 6.4 8.0 0.00 0.00 0.00 37 1012.2
20260502221723 15 210 6.4 12.9 0.00 0.00 0.00 35 1012.1
20260502221223 15 40 4.8 8.0 0.00 0.00 0.00 35 1012.1
20260502220724 15 163 8.0 14.5 0.00 0.00 0.00 34 1012.1
20260502220224 15 169 8.0 12.9 0.00 0.00 0.00 34 1012.1
20260502215723 15 200 6.4 8.0 0.00 0.00 0.00 34 1012.2
20260502215223 14 227 4.8 6.4 0.00 0.00 0.00 37 1012.2
20260502214725 13 203 3.2 6.4 0.00 0.00 0.00 36 1012.2
20260502214223 13 316 4.8 8.0 0.00 0.00 0.00 38 1012.4
20260502213724 14 177 8.0 17.7 0.00 0.00 0.00 36 1012.3
20260502213223 14 182 6.4 9.7 0.00 0.00 0.00 35 1012.4
20260502212723 15 199 6.4 11.3 0.00 0.00 0.00 35 1012.5
20260502212224 15 171 8.0 14.5 0.00 0.00 0.00 35 1012.6
20260502211723 14 205 6.4 12.9 0.00 0.00 0.00 36 1012.6
20260502211223 14 174 6.4 9.7 0.00 0.00 0.00 36 1012.7
20260502210723 14 242 3.2 6.4 0.00 0.00 0.00 36 1012.7
20260502210223 14 218 6.4 11.3 0.00 0.00 0.00 35 1012.8
20260502205723 14 249 4.8 11.3 0.00 0.00 0.00 36 1012.9
20260502205223 14 204 6.4 11.3 0.00 0.00 0.00 36 1012.9
20260502204723 14 201 3.2 8.0 0.00 0.00 0.00 36 1013.0
20260502204224 14 174 6.4 11.3 0.00 0.00 0.00 39 1013.2
20260502203723 14 159 4.8 9.7 0.00 0.00 0.00 38 1013.2
20260502203223 13 182 4.8 9.7 0.00 0.00 0.00 38 1013.2
20260502202723 13 203 3.2 8.0 0.00 0.00 0.00 38 1013.3
20260502202225 13 186 6.4 9.7 0.00 0.00 0.00 35 1013.4
20260502201723 13 168 3.2 9.7 0.00 0.00 0.00 35 1013.4
20260502201223 13 163 6.4 11.3 0.00 0.00 0.00 36 1013.6
20260502200723 14 24 3.2 4.8 0.00 0.00 0.00 37 1013.5
20260502200223 14 189 4.8 9.7 0.00 0.00 0.00 37 1013.5
20260502195724 13 322 4.8 9.7 0.00 0.00 0.00 39 1013.7
20260502195223 13 200 6.4 12.9 0.00 0.00 0.00 38 1013.8
20260502194724 13 182 8.0 11.3 0.00 0.00 0.00 37 1013.9
20260502194223 13 323 6.4 9.7 0.00 0.00 0.00 38 1013.9
20260502193723 13 279 4.8 8.0 0.00 0.00 0.00 38 1014.0
20260502193224 13 354 6.4 9.7 0.00 0.00 0.00 37 1014.1
20260502192724 13 150 3.2 9.7 0.00 0.00 0.00 37 1014.2
20260502192223 14 141 4.8 8.0 0.00 0.00 0.00 36 1014.1
20260502191724 13 101 4.8 14.5 0.00 0.00 0.00 39 1014.2
20260502191224 13 20 3.2 6.4 0.00 0.00 0.00 37 1014.3
20260502190723 13 193 4.8 6.4 0.00 0.00 0.00 39 1014.4
20260502190223 13 106 4.8 8.0 0.00 0.00 0.00 37 1014.4
20260502185724 13 162 4.8 9.7 0.00 0.00 0.00 37 1014.5
20260502185224 13 144 6.4 8.0 0.00 0.00 0.00 38 1014.8
20260502184723 13 183 8.0 12.9 0.00 0.00 0.00 36 1014.6
20260502184224 13 123 6.4 9.7 0.00 0.00 0.00 36 1014.8
20260502183726 13 142 4.8 8.0 0.00 0.00 0.00 37 1014.9
20260502183225 13 182 4.8 9.7 0.00 0.00 0.00 36 1014.9
20260502182723 13 171 3.2 11.3 0.00 0.00 0.00 38 1014.9
20260502182224 13 233 6.4 11.3 0.00 0.00 0.00 37 1015.1
20260502181724 13 312 4.8 6.4 0.00 0.00 0.00 38 1015.1
20260502181224 13 349 4.8 8.0 0.00 0.00 0.00 41 1015.0
20260502180723 12 160 3.2 6.4 0.00 0.00 0.00 38 1015.1
20260502180223 12 168 6.4 8.0 0.00 0.00 0.00 38 1015.1
20260502170224 11 207 6.4 14.5 0.00 0.00 0.00 38 1015.9
20260502164223 11 332 4.8 9.7 0.00 0.00 0.00 38 1016.0
20260502163725 11 318 3.2 4.8 0.00 0.00 0.00 39 1016.1
20260502163225 11 325 3.2 4.8 0.00 0.00 0.00 41 1016.2
20260502162723 11 213 3.2 9.7 0.00 0.00 0.00 40 1016.3
20260502162223 11 27 3.2 8.0 0.00 0.00 0.00 40 1016.3
20260502161723 10 180 4.8 8.0 0.00 0.00 0.00 41 1016.4
20260502161225 10 201 4.8 8.0 0.00 0.00 0.00 40 1016.5
20260502160724 10 231 3.2 6.4 0.00 0.00 0.00 44 1016.5
20260502160227 10 218 3.2 11.3 0.00 0.00 0.00 44 1016.6
20260502152224 9 193 8.0 12.9 0.00 0.00 0.00 42 1016.9
20260502151724 9 309 1.6 3.2 0.00 0.00 0.00 44 1016.9
20260502151224 9 311 3.2 6.4 0.00 0.00 0.00 44 1017.0
20260502150728 9 332 3.2 4.8 0.00 0.00 0.00 43 1017.0
20260502150224 8 10 3.2 4.8 0.00 0.00 0.00 45 1017.1
20260502130727 0 0 0.0 0.0 0.00 0.00 0.00 88 1018.2
20260502130225 0 0 0.0 0.0 0.00 0.00 0.00 91 1018.2
20260502123723 -1 0 0.0 0.0 0.00 0.00 0.00 97 1018.4
20260502123225 -1 0 0.0 0.0 0.00 0.00 0.00 97 1018.4
20260502122723 -1 0 0.0 0.0 0.00 0.00 0.00 97 1018.4
20260502122223 -2 201 0.0 1.6 0.00 0.00 0.00 98 1018.3
20260502121723 -2 268 1.6 1.6 0.00 0.00 0.00 98 1018.3
20260502121223 -3 262 0.0 1.6 0.00 0.00 0.00 98 1018.3
20260502120724 -3 266 0.0 1.6 0.00 0.00 0.00 98 1018.3
20260502120224 -3 0 0.0 0.0 0.00 0.00 0.00 98 1018.4
20260502115724 -4 0 0.0 0.0 0.00 0.00 0.00 98 1018.4
20260502115225 -4 0 0.0 0.0 0.00 0.00 0.00 98 1018.3
20260502114724 -4 0 0.0 0.0 0.00 0.00 0.00 98 1018.3
20260502114227 -5 0 0.0 0.0 0.00 0.00 0.00 98 1018.3
20260502113723 -5 0 0.0 0.0 0.00 0.00 0.00 98 1018.2
20260502113223 -5 0 0.0 0.0 0.00 0.00 0.00 98 1018.2
20260502112724 -5 0 0.0 0.0 0.00 0.00 0.00 98 1018.1
20260502112224 -5 0 0.0 0.0 0.00 0.00 0.00 98 1018.1
20260502111723 -5 83 0.0 1.6 0.00 0.00 0.00 98 1018.1
20260502111224 -5 0 0.0 0.0 0.00 0.00 0.00 98 1018.0
20260502110724 -5 0 0.0 0.0 0.00 0.00 0.00 98 1018.0
20260502110225 -5 0 0.0 0.0 0.00 0.00 0.00 98 1018.0
20260502105723 -5 83 0.0 0.0 0.00 0.00 0.00 98 1018.0
20260502105223 -5 90 0.0 1.6 0.00 0.00 0.00 97 1018.1
20260502104723 -5 0 0.0 0.0 0.00 0.00 0.00 97 1018.1
20260502104223 -5 0 0.0 0.0 0.00 0.00 0.00 97 1018.1
20260502103723 -5 0 0.0 0.0 0.00 0.00 0.00 97 1018.1
20260502103223 -5 83 0.0 1.6 0.00 0.00 0.00 97 1018.1
20260502102725 -5 89 0.0 1.6 0.00 0.00 0.00 98 1018.1
20260502102223 -5 91 0.0 0.0 0.00 0.00 0.00 98 1018.2
20260502101724 -5 0 0.0 0.0 0.00 0.00 0.00 98 1018.2
20260502101223 -5 88 0.0 0.0 0.00 0.00 0.00 98 1018.2
20260502100724 -5 0 0.0 0.0 0.00 0.00 0.00 98 1018.2
20260502100224 -5 0 0.0 0.0 0.00 0.00 0.00 97 1018.2
20260502091224 -5 0 0.0 0.0 0.00 0.00 0.00 97 1018.1
20260502090723 -5 0 0.0 0.0 0.00 0.00 0.00 97 1018.1
20260502090223 -4 0 0.0 0.0 0.00 0.00 0.00 97 1018.1